sensor_id;sensor_type;location;lat;lon;timestamp;P1;durP1;ratioP1;P2;durP2;ratioP2
14015;SDS011;7083;48.854;9.158;2024-01-11T00:01:15;52.67;;;32.23;;
14015;SDS011;7083;48.854;9.158;2024-01-11T00:03:43;40.47;;;28.53;;
14015;SDS011;7083;48.854;9.158;2024-01-11T00:06:09;41.30;;;28.17;;
14015;SDS011;7083;48.854;9.158;2024-01-11T00:08:37;43.33;;;28.23;;
14015;SDS011;7083;48.854;9.158;2024-01-11T00:11:03;45.67;;;29.87;;
14015;SDS011;7083;48.854;9.158;2024-01-11T00:13:30;46.67;;;29.63;;
14015;SDS011;7083;48.854;9.158;2024-01-11T00:15:58;39.40;;;29.10;;
14015;SDS011;7083;48.854;9.158;2024-01-11T00:18:25;48.77;;;31.93;;
14015;SDS011;7083;48.854;9.158;2024-01-11T00:20:52;43.10;;;27.83;;
14015;SDS011;7083;48.854;9.158;2024-01-11T00:23:18;42.13;;;27.03;;
14015;SDS011;7083;48.854;9.158;2024-01-11T00:25:45;46.83;;;28.87;;
14015;SDS011;7083;48.854;9.158;2024-01-11T00:28:12;43.27;;;25.70;;
14015;SDS011;7083;48.854;9.158;2024-01-11T00:30:38;42.37;;;29.43;;
14015;SDS011;7083;48.854;9.158;2024-01-11T00:33:07;40.37;;;27.90;;
14015;SDS011;7083;48.854;9.158;2024-01-11T00:35:34;43.90;;;27.03;;
14015;SDS011;7083;48.854;9.158;2024-01-11T00:38:01;39.93;;;29.30;;
14015;SDS011;7083;48.854;9.158;2024-01-11T00:40:28;47.07;;;27.50;;
14015;SDS011;7083;48.854;9.158;2024-01-11T00:42:55;43.43;;;31.33;;
14015;SDS011;7083;48.854;9.158;2024-01-11T00:45:22;44.33;;;28.83;;
14015;SDS011;7083;48.854;9.158;2024-01-11T00:47:49;44.00;;;29.20;;
14015;SDS011;7083;48.854;9.158;2024-01-11T00:50:17;37.70;;;26.27;;
14015;SDS011;7083;48.854;9.158;2024-01-11T00:52:44;43.73;;;30.23;;
14015;SDS011;7083;48.854;9.158;2024-01-11T00:55:11;43.60;;;27.13;;
14015;SDS011;7083;48.854;9.158;2024-01-11T00:57:38;41.70;;;26.20;;
14015;SDS011;7083;48.854;9.158;2024-01-11T01:00:06;43.93;;;30.27;;
14015;SDS011;7083;48.854;9.158;2024-01-11T01:02:34;45.83;;;29.33;;
14015;SDS011;7083;48.854;9.158;2024-01-11T01:05:01;45.53;;;30.73;;
14015;SDS011;7083;48.854;9.158;2024-01-11T01:07:30;40.57;;;28.80;;
14015;SDS011;7083;48.854;9.158;2024-01-11T01:09:59;40.17;;;28.27;;
14015;SDS011;7083;48.854;9.158;2024-01-11T01:12:26;34.63;;;24.73;;
14015;SDS011;7083;48.854;9.158;2024-01-11T01:14:53;43.57;;;28.10;;
14015;SDS011;7083;48.854;9.158;2024-01-11T01:17:21;43.73;;;26.37;;
14015;SDS011;7083;48.854;9.158;2024-01-11T01:19:54;41.83;;;27.93;;
14015;SDS011;7083;48.854;9.158;2024-01-11T01:22:26;40.23;;;25.40;;
14015;SDS011;7083;48.854;9.158;2024-01-11T01:24:55;50.80;;;31.30;;
14015;SDS011;7083;48.854;9.158;2024-01-11T01:27:22;45.57;;;28.80;;
14015;SDS011;7083;48.854;9.158;2024-01-11T01:29:49;40.43;;;26.27;;
14015;SDS011;7083;48.854;9.158;2024-01-11T01:32:54;43.43;;;28.93;;
14015;SDS011;7083;48.854;9.158;2024-01-11T01:35:55;35.23;;;26.63;;
14015;SDS011;7083;48.854;9.158;2024-01-11T01:38:33;36.83;;;25.00;;
14015;SDS011;7083;48.854;9.158;2024-01-11T01:41:42;39.07;;;23.40;;
14015;SDS011;7083;48.854;9.158;2024-01-11T01:44:11;42.70;;;27.37;;
14015;SDS011;7083;48.854;9.158;2024-01-11T01:46:47;33.77;;;24.87;;
14015;SDS011;7083;48.854;9.158;2024-01-11T01:49:18;36.80;;;25.27;;
14015;SDS011;7083;48.854;9.158;2024-01-11T01:51:53;44.80;;;26.93;;
14015;SDS011;7083;48.854;9.158;2024-01-11T01:54:25;44.90;;;29.07;;
14015;SDS011;7083;48.854;9.158;2024-01-11T01:56:57;41.07;;;27.27;;
14015;SDS011;7083;48.854;9.158;2024-01-11T01:59:27;40.20;;;27.37;;
14015;SDS011;7083;48.854;9.158;2024-01-11T02:03:27;46.20;;;27.33;;
14015;SDS011;7083;48.854;9.158;2024-01-11T02:05:48;35.60;;;24.43;;
14015;SDS011;7083;48.854;9.158;2024-01-11T02:08:35;35.17;;;25.37;;
14015;SDS011;7083;48.854;9.158;2024-01-11T02:14:18;37.77;;;24.33;;
14015;SDS011;7083;48.854;9.158;2024-01-11T02:16:52;47.20;;;30.47;;
14015;SDS011;7083;48.854;9.158;2024-01-11T02:19:26;49.33;;;29.73;;
14015;SDS011;7083;48.854;9.158;2024-01-11T02:21:56;44.93;;;28.80;;
14015;SDS011;7083;48.854;9.158;2024-01-11T02:27:30;44.53;;;26.57;;
14015;SDS011;7083;48.854;9.158;2024-01-11T02:29:59;43.33;;;29.67;;
14015;SDS011;7083;48.854;9.158;2024-01-11T02:32:32;33.97;;;24.23;;
14015;SDS011;7083;48.854;9.158;2024-01-11T02:35:13;40.33;;;25.57;;
14015;SDS011;7083;48.854;9.158;2024-01-11T02:38:10;36.37;;;26.63;;
14015;SDS011;7083;48.854;9.158;2024-01-11T02:44:08;41.90;;;24.97;;
14015;SDS011;7083;48.854;9.158;2024-01-11T02:47:25;31.03;;;23.70;;
14015;SDS011;7083;48.854;9.158;2024-01-11T02:50:09;45.33;;;27.93;;
14015;SDS011;7083;48.854;9.158;2024-01-11T02:52:46;53.08;;;35.58;;
14015;SDS011;7083;48.854;9.158;2024-01-11T02:55:15;44.60;;;31.53;;
14015;SDS011;7083;48.854;9.158;2024-01-11T02:57:44;39.30;;;27.37;;
14015;SDS011;7083;48.854;9.158;2024-01-11T03:00:13;40.53;;;27.33;;
14015;SDS011;7083;48.854;9.158;2024-01-11T03:02:40;37.40;;;25.77;;
14015;SDS011;7083;48.854;9.158;2024-01-11T03:05:30;38.30;;;25.90;;
14015;SDS011;7083;48.854;9.158;2024-01-11T03:08:01;38.30;;;25.83;;
14015;SDS011;7083;48.854;9.158;2024-01-11T03:10:36;35.97;;;27.63;;
14015;SDS011;7083;48.854;9.158;2024-01-11T03:13:17;42.87;;;27.80;;
14015;SDS011;7083;48.854;9.158;2024-01-11T05:07:56;43.77;;;25.67;;
14015;SDS011;7083;48.854;9.158;2024-01-11T05:10:30;41.40;;;25.23;;
14015;SDS011;7083;48.854;9.158;2024-01-11T05:13:03;42.63;;;25.90;;
14015;SDS011;7083;48.854;9.158;2024-01-11T05:15:33;37.00;;;23.87;;
14015;SDS011;7083;48.854;9.158;2024-01-11T05:18:00;35.43;;;25.83;;
14015;SDS011;7083;48.854;9.158;2024-01-11T05:20:51;46.00;;;28.03;;
14015;SDS011;7083;48.854;9.158;2024-01-11T05:23:37;38.33;;;25.60;;
14015;SDS011;7083;48.854;9.158;2024-01-11T05:26:04;44.53;;;23.60;;
14015;SDS011;7083;48.854;9.158;2024-01-11T05:28:31;38.87;;;25.73;;
14015;SDS011;7083;48.854;9.158;2024-01-11T05:30:58;35.30;;;25.73;;
14015;SDS011;7083;48.854;9.158;2024-01-11T05:33:25;35.33;;;25.63;;
14015;SDS011;7083;48.854;9.158;2024-01-11T05:35:51;42.93;;;29.33;;
14015;SDS011;7083;48.854;9.158;2024-01-11T05:38:19;39.60;;;27.40;;
14015;SDS011;7083;48.854;9.158;2024-01-11T05:40:47;35.23;;;24.30;;
14015;SDS011;7083;48.854;9.158;2024-01-11T05:43:14;41.47;;;24.83;;
14015;SDS011;7083;48.854;9.158;2024-01-11T05:45:41;38.50;;;26.57;;
14015;SDS011;7083;48.854;9.158;2024-01-11T05:48:10;39.17;;;25.43;;
14015;SDS011;7083;48.854;9.158;2024-01-11T05:50:38;43.57;;;26.67;;
14015;SDS011;7083;48.854;9.158;2024-01-11T05:53:23;33.87;;;22.63;;
14015;SDS011;7083;48.854;9.158;2024-01-11T05:56:47;34.93;;;24.27;;
14015;SDS011;7083;48.854;9.158;2024-01-11T05:59:38;36.63;;;25.33;;
14015;SDS011;7083;48.854;9.158;2024-01-11T06:03:07;33.30;;;22.57;;
14015;SDS011;7083;48.854;9.158;2024-01-11T06:06:07;35.80;;;24.33;;
14015;SDS011;7083;48.854;9.158;2024-01-11T06:12:58;31.13;;;21.03;;
14015;SDS011;7083;48.854;9.158;2024-01-11T06:23:45;40.47;;;24.57;;
14015;SDS011;7083;48.854;9.158;2024-01-11T06:26:12;42.43;;;24.13;;
14015;SDS011;7083;48.854;9.158;2024-01-11T06:31:10;39.73;;;27.20;;
14015;SDS011;7083;48.854;9.158;2024-01-11T06:33:37;37.57;;;25.37;;
14015;SDS011;7083;48.854;9.158;2024-01-11T06:36:04;38.47;;;25.67;;
14015;SDS011;7083;48.854;9.158;2024-01-11T06:38:32;45.87;;;27.10;;
14015;SDS011;7083;48.854;9.158;2024-01-11T06:40:59;40.67;;;25.80;;
14015;SDS011;7083;48.854;9.158;2024-01-11T06:43:25;39.30;;;25.33;;
14015;SDS011;7083;48.854;9.158;2024-01-11T06:45:52;40.80;;;27.50;;
14015;SDS011;7083;48.854;9.158;2024-01-11T06:48:20;41.83;;;25.27;;
14015;SDS011;7083;48.854;9.158;2024-01-11T06:50:47;42.93;;;28.33;;
14015;SDS011;7083;48.854;9.158;2024-01-11T06:53:14;37.23;;;24.93;;
14015;SDS011;7083;48.854;9.158;2024-01-11T06:55:40;43.50;;;28.73;;
14015;SDS011;7083;48.854;9.158;2024-01-11T06:58:08;39.93;;;26.93;;
14015;SDS011;7083;48.854;9.158;2024-01-11T07:00:35;38.70;;;26.13;;
14015;SDS011;7083;48.854;9.158;2024-01-11T07:03:03;37.90;;;26.43;;
14015;SDS011;7083;48.854;9.158;2024-01-11T07:05:32;39.17;;;25.37;;
14015;SDS011;7083;48.854;9.158;2024-01-11T07:07:58;40.23;;;25.53;;
14015;SDS011;7083;48.854;9.158;2024-01-11T07:10:25;39.60;;;25.33;;
14015;SDS011;7083;48.854;9.158;2024-01-11T07:12:52;41.03;;;26.23;;
14015;SDS011;7083;48.854;9.158;2024-01-11T07:15:18;39.30;;;25.07;;
14015;SDS011;7083;48.854;9.158;2024-01-11T07:17:45;45.83;;;29.47;;
14015;SDS011;7083;48.854;9.158;2024-01-11T07:20:12;41.00;;;27.57;;
14015;SDS011;7083;48.854;9.158;2024-01-11T07:22:42;45.63;;;28.97;;
14015;SDS011;7083;48.854;9.158;2024-01-11T07:25:09;46.03;;;26.43;;
14015;SDS011;7083;48.854;9.158;2024-01-11T07:27:36;51.73;;;31.13;;
14015;SDS011;7083;48.854;9.158;2024-01-11T07:30:03;40.80;;;25.43;;
14015;SDS011;7083;48.854;9.158;2024-01-11T07:32:31;45.63;;;28.93;;
14015;SDS011;7083;48.854;9.158;2024-01-11T07:34:58;54.73;;;33.33;;
14015;SDS011;7083;48.854;9.158;2024-01-11T07:37:25;67.93;;;37.23;;
14015;SDS011;7083;48.854;9.158;2024-01-11T07:39:54;62.87;;;35.93;;
14015;SDS011;7083;48.854;9.158;2024-01-11T07:42:20;62.90;;;34.97;;
14015;SDS011;7083;48.854;9.158;2024-01-11T07:44:47;58.67;;;34.60;;
14015;SDS011;7083;48.854;9.158;2024-01-11T07:47:14;56.83;;;34.00;;
14015;SDS011;7083;48.854;9.158;2024-01-11T07:49:40;57.03;;;35.50;;
14015;SDS011;7083;48.854;9.158;2024-01-11T07:52:07;46.07;;;31.33;;
14015;SDS011;7083;48.854;9.158;2024-01-11T07:54:34;49.10;;;31.57;;
14015;SDS011;7083;48.854;9.158;2024-01-11T07:57:03;45.27;;;29.43;;
14015;SDS011;7083;48.854;9.158;2024-01-11T07:59:32;41.20;;;27.40;;
14015;SDS011;7083;48.854;9.158;2024-01-11T08:02:00;40.63;;;27.43;;
14015;SDS011;7083;48.854;9.158;2024-01-11T08:04:27;39.53;;;28.07;;
14015;SDS011;7083;48.854;9.158;2024-01-11T08:06:54;43.40;;;29.63;;
14015;SDS011;7083;48.854;9.158;2024-01-11T08:09:21;42.47;;;30.47;;
14015;SDS011;7083;48.854;9.158;2024-01-11T08:11:48;41.60;;;30.47;;
14015;SDS011;7083;48.854;9.158;2024-01-11T08:14:16;42.67;;;29.30;;
14015;SDS011;7083;48.854;9.158;2024-01-11T08:16:42;44.80;;;30.87;;
14015;SDS011;7083;48.854;9.158;2024-01-11T08:19:09;40.93;;;28.13;;
14015;SDS011;7083;48.854;9.158;2024-01-11T08:21:38;45.90;;;31.90;;
14015;SDS011;7083;48.854;9.158;2024-01-11T08:24:06;46.63;;;30.67;;
14015;SDS011;7083;48.854;9.158;2024-01-11T08:26:33;47.47;;;32.60;;
14015;SDS011;7083;48.854;9.158;2024-01-11T08:29:00;45.93;;;32.37;;
14015;SDS011;7083;48.854;9.158;2024-01-11T08:31:28;40.17;;;30.47;;
14015;SDS011;7083;48.854;9.158;2024-01-11T08:33:55;48.87;;;32.37;;
14015;SDS011;7083;48.854;9.158;2024-01-11T08:36:22;49.50;;;34.83;;
14015;SDS011;7083;48.854;9.158;2024-01-11T08:38:48;62.83;;;46.05;;
14015;SDS011;7083;48.854;9.158;2024-01-11T08:41:15;54.53;;;41.30;;
14015;SDS011;7083;48.854;9.158;2024-01-11T08:43:42;45.93;;;33.83;;
14015;SDS011;7083;48.854;9.158;2024-01-11T08:46:08;54.73;;;36.60;;
14015;SDS011;7083;48.854;9.158;2024-01-11T08:48:36;46.60;;;32.83;;
14015;SDS011;7083;48.854;9.158;2024-01-11T08:51:03;47.63;;;32.60;;
14015;SDS011;7083;48.854;9.158;2024-01-11T08:53:30;54.13;;;36.80;;
14015;SDS011;7083;48.854;9.158;2024-01-11T08:55:56;53.10;;;33.70;;
14015;SDS011;7083;48.854;9.158;2024-01-11T08:58:23;46.27;;;32.47;;
14015;SDS011;7083;48.854;9.158;2024-01-11T09:00:50;53.33;;;33.30;;
14015;SDS011;7083;48.854;9.158;2024-01-11T09:03:17;45.40;;;33.20;;
14015;SDS011;7083;48.854;9.158;2024-01-11T09:05:45;46.37;;;31.77;;
14015;SDS011;7083;48.854;9.158;2024-01-11T09:08:11;55.00;;;34.50;;
14015;SDS011;7083;48.854;9.158;2024-01-11T09:10:38;56.50;;;35.90;;
14015;SDS011;7083;48.854;9.158;2024-01-11T09:13:06;49.43;;;36.53;;
14015;SDS011;7083;48.854;9.158;2024-01-11T09:15:33;41.07;;;31.13;;
14015;SDS011;7083;48.854;9.158;2024-01-11T09:18:00;48.73;;;32.80;;
14015;SDS011;7083;48.854;9.158;2024-01-11T09:20:26;53.03;;;34.90;;
14015;SDS011;7083;48.854;9.158;2024-01-11T09:22:54;52.37;;;35.77;;
14015;SDS011;7083;48.854;9.158;2024-01-11T09:25:21;54.00;;;35.80;;
14015;SDS011;7083;48.854;9.158;2024-01-11T09:27:49;51.83;;;37.27;;
14015;SDS011;7083;48.854;9.158;2024-01-11T09:30:15;47.33;;;35.63;;
14015;SDS011;7083;48.854;9.158;2024-01-11T09:32:42;49.63;;;34.90;;
14015;SDS011;7083;48.854;9.158;2024-01-11T09:35:09;48.50;;;32.87;;
14015;SDS011;7083;48.854;9.158;2024-01-11T09:37:36;50.53;;;35.63;;
14015;SDS011;7083;48.854;9.158;2024-01-11T09:40:04;53.70;;;35.90;;
14015;SDS011;7083;48.854;9.158;2024-01-11T09:42:35;52.83;;;34.93;;
14015;SDS011;7083;48.854;9.158;2024-01-11T09:45:02;50.67;;;36.50;;
14015;SDS011;7083;48.854;9.158;2024-01-11T09:47:33;44.57;;;34.13;;
14015;SDS011;7083;48.854;9.158;2024-01-11T09:50:01;58.47;;;46.70;;
14015;SDS011;7083;48.854;9.158;2024-01-11T09:52:29;54.60;;;39.67;;
14015;SDS011;7083;48.854;9.158;2024-01-11T09:54:56;52.20;;;38.00;;
14015;SDS011;7083;48.854;9.158;2024-01-11T09:57:26;51.77;;;35.03;;
14015;SDS011;7083;48.854;9.158;2024-01-11T09:59:56;52.60;;;35.90;;
14015;SDS011;7083;48.854;9.158;2024-01-11T10:02:23;53.67;;;34.97;;
14015;SDS011;7083;48.854;9.158;2024-01-11T10:04:51;46.87;;;34.40;;
14015;SDS011;7083;48.854;9.158;2024-01-11T10:07:18;48.57;;;34.83;;
14015;SDS011;7083;48.854;9.158;2024-01-11T10:09:47;48.07;;;35.03;;
14015;SDS011;7083;48.854;9.158;2024-01-11T10:12:14;51.73;;;33.40;;
14015;SDS011;7083;48.854;9.158;2024-01-11T10:14:42;51.97;;;33.43;;
14015;SDS011;7083;48.854;9.158;2024-01-11T10:17:08;50.77;;;37.10;;
14015;SDS011;7083;48.854;9.158;2024-01-11T10:19:35;47.13;;;35.83;;
14015;SDS011;7083;48.854;9.158;2024-01-11T10:22:02;49.93;;;35.13;;
14015;SDS011;7083;48.854;9.158;2024-01-11T10:24:29;51.03;;;35.77;;
14015;SDS011;7083;48.854;9.158;2024-01-11T10:26:56;49.57;;;35.63;;
14015;SDS011;7083;48.854;9.158;2024-01-11T10:29:27;42.57;;;33.27;;
14015;SDS011;7083;48.854;9.158;2024-01-11T10:31:57;51.90;;;36.40;;
14015;SDS011;7083;48.854;9.158;2024-01-11T10:34:24;46.73;;;34.83;;
14015;SDS011;7083;48.854;9.158;2024-01-11T10:36:51;46.13;;;33.10;;
14015;SDS011;7083;48.854;9.158;2024-01-11T10:39:18;49.87;;;34.63;;
14015;SDS011;7083;48.854;9.158;2024-01-11T10:41:51;48.20;;;34.30;;
14015;SDS011;7083;48.854;9.158;2024-01-11T10:44:22;48.20;;;35.27;;
14015;SDS011;7083;48.854;9.158;2024-01-11T10:46:50;50.47;;;35.70;;
14015;SDS011;7083;48.854;9.158;2024-01-11T10:49:21;49.73;;;35.77;;
14015;SDS011;7083;48.854;9.158;2024-01-11T10:51:53;51.63;;;34.13;;
14015;SDS011;7083;48.854;9.158;2024-01-11T10:54:25;51.83;;;36.57;;
14015;SDS011;7083;48.854;9.158;2024-01-11T10:56:52;49.93;;;36.27;;
14015;SDS011;7083;48.854;9.158;2024-01-11T10:59:20;51.33;;;35.03;;
14015;SDS011;7083;48.854;9.158;2024-01-11T11:01:49;51.93;;;35.80;;
14015;SDS011;7083;48.854;9.158;2024-01-11T11:04:17;49.33;;;34.37;;
14015;SDS011;7083;48.854;9.158;2024-01-11T11:06:48;49.53;;;34.73;;
14015;SDS011;7083;48.854;9.158;2024-01-11T11:09:16;54.20;;;37.67;;
14015;SDS011;7083;48.854;9.158;2024-01-11T11:11:44;52.03;;;34.10;;
14015;SDS011;7083;48.854;9.158;2024-01-11T11:14:13;44.53;;;33.57;;
14015;SDS011;7083;48.854;9.158;2024-01-11T11:16:42;45.30;;;33.20;;
14015;SDS011;7083;48.854;9.158;2024-01-11T11:19:11;42.83;;;34.17;;
14015;SDS011;7083;48.854;9.158;2024-01-11T11:21:41;45.17;;;34.97;;
14015;SDS011;7083;48.854;9.158;2024-01-11T11:24:09;45.60;;;33.53;;
14015;SDS011;7083;48.854;9.158;2024-01-11T11:26:36;50.30;;;36.03;;
14015;SDS011;7083;48.854;9.158;2024-01-11T11:29:03;43.80;;;34.17;;
14015;SDS011;7083;48.854;9.158;2024-01-11T11:31:36;43.67;;;33.87;;
14015;SDS011;7083;48.854;9.158;2024-01-11T11:34:04;49.77;;;36.83;;
14015;SDS011;7083;48.854;9.158;2024-01-11T11:36:31;56.10;;;34.70;;
14015;SDS011;7083;48.854;9.158;2024-01-11T11:39:00;47.43;;;34.10;;
14015;SDS011;7083;48.854;9.158;2024-01-11T11:41:29;42.23;;;33.90;;
14015;SDS011;7083;48.854;9.158;2024-01-11T11:44:00;43.50;;;34.93;;
14015;SDS011;7083;48.854;9.158;2024-01-11T11:46:27;46.00;;;34.20;;
14015;SDS011;7083;48.854;9.158;2024-01-11T11:48:54;47.37;;;36.10;;
14015;SDS011;7083;48.854;9.158;2024-01-11T11:51:21;48.13;;;35.13;;
14015;SDS011;7083;48.854;9.158;2024-01-11T11:53:49;48.07;;;33.63;;
14015;SDS011;7083;48.854;9.158;2024-01-11T11:56:17;43.87;;;32.93;;
14015;SDS011;7083;48.854;9.158;2024-01-11T11:58:46;52.63;;;36.57;;
14015;SDS011;7083;48.854;9.158;2024-01-11T12:01:17;41.63;;;32.17;;
14015;SDS011;7083;48.854;9.158;2024-01-11T12:03:44;47.87;;;34.10;;
14015;SDS011;7083;48.854;9.158;2024-01-11T12:06:14;45.87;;;34.33;;
14015;SDS011;7083;48.854;9.158;2024-01-11T12:08:42;41.43;;;32.87;;
14015;SDS011;7083;48.854;9.158;2024-01-11T12:11:12;41.77;;;34.10;;
14015;SDS011;7083;48.854;9.158;2024-01-11T12:13:40;41.17;;;33.17;;
14015;SDS011;7083;48.854;9.158;2024-01-11T12:16:08;49.50;;;34.33;;
14015;SDS011;7083;48.854;9.158;2024-01-11T12:18:35;42.20;;;33.17;;
14015;SDS011;7083;48.854;9.158;2024-01-11T12:21:01;46.57;;;32.60;;
14015;SDS011;7083;48.854;9.158;2024-01-11T12:23:28;45.37;;;35.37;;
14015;SDS011;7083;48.854;9.158;2024-01-11T12:25:56;48.23;;;34.63;;
14015;SDS011;7083;48.854;9.158;2024-01-11T12:28:23;48.27;;;34.97;;
14015;SDS011;7083;48.854;9.158;2024-01-11T12:30:50;45.47;;;35.63;;
14015;SDS011;7083;48.854;9.158;2024-01-11T12:33:18;39.93;;;33.07;;
14015;SDS011;7083;48.854;9.158;2024-01-11T12:35:45;45.23;;;34.93;;
14015;SDS011;7083;48.854;9.158;2024-01-11T12:38:13;51.87;;;34.70;;
14015;SDS011;7083;48.854;9.158;2024-01-11T12:40:40;48.30;;;34.67;;
14015;SDS011;7083;48.854;9.158;2024-01-11T12:43:08;46.13;;;33.63;;
14015;SDS011;7083;48.854;9.158;2024-01-11T12:45:35;43.73;;;32.60;;
14015;SDS011;7083;48.854;9.158;2024-01-11T12:48:02;47.53;;;34.00;;
14015;SDS011;7083;48.854;9.158;2024-01-11T12:50:31;44.17;;;32.00;;
14015;SDS011;7083;48.854;9.158;2024-01-11T12:53:06;45.70;;;33.37;;
14015;SDS011;7083;48.854;9.158;2024-01-11T12:55:34;48.77;;;33.77;;
14015;SDS011;7083;48.854;9.158;2024-01-11T12:58:04;44.57;;;32.53;;
14015;SDS011;7083;48.854;9.158;2024-01-11T13:00:31;45.80;;;33.87;;
14015;SDS011;7083;48.854;9.158;2024-01-11T13:02:58;38.77;;;31.03;;
14015;SDS011;7083;48.854;9.158;2024-01-11T13:05:25;40.83;;;30.23;;
14015;SDS011;7083;48.854;9.158;2024-01-11T13:07:53;42.40;;;33.83;;
14015;SDS011;7083;48.854;9.158;2024-01-11T13:10:21;45.67;;;32.37;;
14015;SDS011;7083;48.854;9.158;2024-01-11T13:12:52;50.83;;;34.13;;
14015;SDS011;7083;48.854;9.158;2024-01-11T13:15:19;44.00;;;35.30;;
14015;SDS011;7083;48.854;9.158;2024-01-11T13:17:46;44.33;;;35.20;;
14015;SDS011;7083;48.854;9.158;2024-01-11T13:20:13;43.07;;;35.17;;
14015;SDS011;7083;48.854;9.158;2024-01-11T13:22:40;39.20;;;31.67;;
14015;SDS011;7083;48.854;9.158;2024-01-11T13:25:08;51.60;;;33.93;;
14015;SDS011;7083;48.854;9.158;2024-01-11T13:27:35;44.47;;;32.70;;
14015;SDS011;7083;48.854;9.158;2024-01-11T13:30:02;45.67;;;32.27;;
14015;SDS011;7083;48.854;9.158;2024-01-11T13:32:29;43.87;;;31.10;;
14015;SDS011;7083;48.854;9.158;2024-01-11T13:34:55;43.67;;;32.90;;
14015;SDS011;7083;48.854;9.158;2024-01-11T13:37:23;46.10;;;33.77;;
14015;SDS011;7083;48.854;9.158;2024-01-11T13:39:50;42.60;;;37.88;;
14015;SDS011;7083;48.854;9.158;2024-01-11T13:42:18;42.83;;;37.20;;
14015;SDS011;7083;48.854;9.158;2024-01-11T13:44:44;41.60;;;33.47;;
14015;SDS011;7083;48.854;9.158;2024-01-11T13:47:11;42.30;;;33.03;;
14015;SDS011;7083;48.854;9.158;2024-01-11T13:49:38;44.30;;;33.93;;
14015;SDS011;7083;48.854;9.158;2024-01-11T13:52:04;44.17;;;32.07;;
14015;SDS011;7083;48.854;9.158;2024-01-11T13:54:31;41.93;;;32.87;;
14015;SDS011;7083;48.854;9.158;2024-01-11T13:56:58;40.87;;;31.23;;
14015;SDS011;7083;48.854;9.158;2024-01-11T13:59:26;42.47;;;32.63;;
14015;SDS011;7083;48.854;9.158;2024-01-11T14:01:53;42.40;;;31.27;;
14015;SDS011;7083;48.854;9.158;2024-01-11T14:04:20;39.27;;;30.73;;
14015;SDS011;7083;48.854;9.158;2024-01-11T14:06:48;37.80;;;30.47;;
14015;SDS011;7083;48.854;9.158;2024-01-11T14:09:16;44.23;;;31.87;;
14015;SDS011;7083;48.854;9.158;2024-01-11T14:11:43;39.90;;;30.27;;
14015;SDS011;7083;48.854;9.158;2024-01-11T14:14:09;47.97;;;28.67;;
14015;SDS011;7083;48.854;9.158;2024-01-11T14:16:37;40.87;;;30.83;;
14015;SDS011;7083;48.854;9.158;2024-01-11T14:19:04;40.03;;;29.83;;
14015;SDS011;7083;48.854;9.158;2024-01-11T14:21:31;45.50;;;32.83;;
14015;SDS011;7083;48.854;9.158;2024-01-11T14:23:58;38.57;;;31.10;;
14015;SDS011;7083;48.854;9.158;2024-01-11T14:26:24;42.60;;;38.08;;
14015;SDS011;7083;48.854;9.158;2024-01-11T14:28:51;41.77;;;36.63;;
14015;SDS011;7083;48.854;9.158;2024-01-11T14:31:19;41.67;;;33.03;;
14015;SDS011;7083;48.854;9.158;2024-01-11T14:33:47;44.77;;;34.87;;
14015;SDS011;7083;48.854;9.158;2024-01-11T14:36:14;44.70;;;32.67;;
14015;SDS011;7083;48.854;9.158;2024-01-11T14:38:41;39.57;;;32.20;;
14015;SDS011;7083;48.854;9.158;2024-01-11T14:41:08;41.57;;;32.10;;
14015;SDS011;7083;48.854;9.158;2024-01-11T14:43:35;45.77;;;33.43;;
14015;SDS011;7083;48.854;9.158;2024-01-11T14:46:02;42.33;;;32.33;;
14015;SDS011;7083;48.854;9.158;2024-01-11T14:48:29;41.10;;;33.00;;
14015;SDS011;7083;48.854;9.158;2024-01-11T14:50:58;45.60;;;32.77;;
14015;SDS011;7083;48.854;9.158;2024-01-11T14:53:25;43.13;;;31.63;;
14015;SDS011;7083;48.854;9.158;2024-01-11T14:55:51;50.20;;;33.40;;
14015;SDS011;7083;48.854;9.158;2024-01-11T14:58:18;47.43;;;33.80;;
14015;SDS011;7083;48.854;9.158;2024-01-11T15:00:47;40.83;;;30.33;;
14015;SDS011;7083;48.854;9.158;2024-01-11T15:03:15;43.27;;;31.50;;
14015;SDS011;7083;48.854;9.158;2024-01-11T15:05:43;38.03;;;31.83;;
14015;SDS011;7083;48.854;9.158;2024-01-11T15:08:11;46.00;;;33.03;;
14015;SDS011;7083;48.854;9.158;2024-01-11T15:10:38;45.00;;;32.20;;
14015;SDS011;7083;48.854;9.158;2024-01-11T15:13:05;39.80;;;30.47;;
14015;SDS011;7083;48.854;9.158;2024-01-11T15:15:32;43.40;;;31.10;;
14015;SDS011;7083;48.854;9.158;2024-01-11T15:17:59;42.67;;;32.03;;
14015;SDS011;7083;48.854;9.158;2024-01-11T15:20:25;39.53;;;31.80;;
14015;SDS011;7083;48.854;9.158;2024-01-11T15:22:52;47.43;;;32.73;;
14015;SDS011;7083;48.854;9.158;2024-01-11T15:25:20;42.57;;;32.80;;
14015;SDS011;7083;48.854;9.158;2024-01-11T15:27:48;45.97;;;32.43;;
14015;SDS011;7083;48.854;9.158;2024-01-11T15:30:15;43.53;;;29.97;;
14015;SDS011;7083;48.854;9.158;2024-01-11T15:32:42;41.57;;;32.73;;
14015;SDS011;7083;48.854;9.158;2024-01-11T15:35:09;46.67;;;36.65;;
14015;SDS011;7083;48.854;9.158;2024-01-11T15:37:37;43.80;;;31.13;;
14015;SDS011;7083;48.854;9.158;2024-01-11T15:40:04;41.33;;;29.57;;
14015;SDS011;7083;48.854;9.158;2024-01-11T15:42:34;36.30;;;28.67;;
14015;SDS011;7083;48.854;9.158;2024-01-11T15:45:02;37.70;;;29.43;;
14015;SDS011;7083;48.854;9.158;2024-01-11T15:47:31;44.27;;;30.87;;
14015;SDS011;7083;48.854;9.158;2024-01-11T15:49:57;38.37;;;30.83;;
14015;SDS011;7083;48.854;9.158;2024-01-11T15:52:32;40.73;;;30.17;;
14015;SDS011;7083;48.854;9.158;2024-01-11T15:55:01;39.53;;;29.00;;
14015;SDS011;7083;48.854;9.158;2024-01-11T15:57:28;38.90;;;28.83;;
14015;SDS011;7083;48.854;9.158;2024-01-11T15:59:56;37.73;;;28.30;;
14015;SDS011;7083;48.854;9.158;2024-01-11T16:02:23;34.43;;;27.43;;
14015;SDS011;7083;48.854;9.158;2024-01-11T16:04:49;38.27;;;28.83;;
14015;SDS011;7083;48.854;9.158;2024-01-11T16:07:16;36.67;;;28.03;;
14015;SDS011;7083;48.854;9.158;2024-01-11T16:09:43;42.57;;;30.23;;
14015;SDS011;7083;48.854;9.158;2024-01-11T16:12:10;47.27;;;31.43;;
14015;SDS011;7083;48.854;9.158;2024-01-11T16:14:36;38.23;;;29.97;;
14015;SDS011;7083;48.854;9.158;2024-01-11T16:17:04;39.23;;;29.73;;
14015;SDS011;7083;48.854;9.158;2024-01-11T16:19:31;36.47;;;27.77;;
14015;SDS011;7083;48.854;9.158;2024-01-11T16:21:58;40.23;;;29.80;;
14015;SDS011;7083;48.854;9.158;2024-01-11T16:24:25;37.53;;;29.03;;
14015;SDS011;7083;48.854;9.158;2024-01-11T16:26:52;42.07;;;29.80;;
14015;SDS011;7083;48.854;9.158;2024-01-11T16:29:19;45.30;;;30.47;;
14015;SDS011;7083;48.854;9.158;2024-01-11T16:31:45;44.37;;;29.07;;
14015;SDS011;7083;48.854;9.158;2024-01-11T16:34:13;43.50;;;32.07;;
14015;SDS011;7083;48.854;9.158;2024-01-11T16:36:40;46.80;;;32.23;;
14015;SDS011;7083;48.854;9.158;2024-01-11T16:39:07;42.87;;;31.90;;
14015;SDS011;7083;48.854;9.158;2024-01-11T16:41:35;41.20;;;29.90;;
14015;SDS011;7083;48.854;9.158;2024-01-11T16:44:02;42.33;;;29.73;;
14015;SDS011;7083;48.854;9.158;2024-01-11T16:46:29;39.97;;;29.90;;
14015;SDS011;7083;48.854;9.158;2024-01-11T16:48:56;37.97;;;29.00;;
14015;SDS011;7083;48.854;9.158;2024-01-11T16:51:24;40.07;;;30.23;;
14015;SDS011;7083;48.854;9.158;2024-01-11T16:53:50;41.00;;;30.40;;
14015;SDS011;7083;48.854;9.158;2024-01-11T16:56:17;46.73;;;32.77;;
14015;SDS011;7083;48.854;9.158;2024-01-11T16:58:44;46.50;;;31.87;;
14015;SDS011;7083;48.854;9.158;2024-01-11T17:01:10;42.50;;;31.83;;
14015;SDS011;7083;48.854;9.158;2024-01-11T17:03:37;55.17;;;35.53;;